Latest Weather Observations for Eildon Fire Tower

IDV60801

Issued at 9:12 pm EST Thursday 22 August 2019 (issued every 10 minutes, with the page automatically refreshed every 10 minutes)

About weather observations | Map of weather stations | Latest weather observations for VIC | Other Formats
Station Details ID: 088164 Name: EILDON FIRE TOWER Lat: -37.21 Lon: 145.84 Height: 637.0 m
Data from the previous 72 hours. | See also: Recent months at Eildon Fire Tower
Date/Time
EST
Temp
°C
App
Temp
°C
Dew
Point
°C
Rel
Hum
%
Delta-T
°C
Wind Press
QNH
hPa
Press
MSL
hPa
Rain since
9am
mm
Dir  Spd
km/h
Gust
km/h
Spd
kts
Gust
kts
22/09:00pm 4.1 -1.2 -0.3 73 1.7 SW 17 22 9 12 - - 0.0
22/08:30pm 3.8 -1.0 0.1 77 1.5 WSW 15 24 8 13 - - 0.0
22/08:00pm 4.2 -0.6 0.2 75 1.6 SW 15 24 8 13 - - 0.0
22/07:30pm 4.5 -1.0 0.3 74 1.7 WSW 19 26 10 14 - - 0.0
22/07:00pm 4.6 -1.0 0.0 72 1.8 WSW 19 28 10 15 - - 0.0
22/06:30pm 5.1 -0.7 -0.3 68 2.1 WSW 20 32 11 17 - - 0.0
22/06:00pm 5.4 -1.6 -0.4 66 2.3 SW 26 33 14 18 - - 0.0
22/05:30pm 5.8 -0.5 -0.9 62 2.6 SW 22 35 12 19 - - 0.0
22/05:00pm 6.8 0.1 -1.1 57 3.1 SW 24 46 13 25 - - 0.0
22/04:30pm 7.5 1.4 0.3 60 3.0 SW 22 35 12 19 - - 0.0
22/04:00pm 7.4 -0.4 -0.5 57 3.2 SW 30 44 16 24 - - 0.0
22/03:49pm 7.7 0.2 1.1 63 2.8 SW 30 50 16 27 - - 0.0
22/03:30pm 7.4 -0.4 1.5 66 2.5 SW 32 48 17 26 - - 0.0
22/03:09pm 7.9 0.8 1.5 64 2.7 SW 28 48 15 26 - - 0.0
22/03:00pm 7.6 1.6 1.2 64 2.7 SW 22 41 12 22 - - 0.0
22/02:30pm 7.8 0.9 2.7 70 2.2 WSW 28 44 15 24 - - 0.0
22/02:00pm 8.1 0.3 1.9 65 2.7 WSW 32 48 17 26 - - 0.0
22/01:30pm 7.1 -0.9 1.6 68 2.3 WSW 33 50 18 27 - - 0.0
22/01:00pm 6.2 0.3 3.7 84 1.1 WSW 24 35 13 19 - - 0.0
22/12:30pm 7.2 0.9 1.5 67 2.4 SW 24 35 13 19 - - 0.0
22/12:00pm 7.2 0.1 1.3 66 2.5 SW 28 50 15 27 - - 0.0
22/11:42am 6.2 -1.6 1.7 73 1.9 WSW 32 52 17 28 - - 0.0
22/11:30am 6.1 -1.8 2.2 76 1.7 WSW 33 52 18 28 - - 0.0
22/11:00am 5.9 -2.5 1.8 75 1.7 SW 35 57 19 31 - - 0.0
22/10:30am 6.4 -2.1 1.1 69 2.2 WSW 35 56 19 30 - - 0.0
22/10:00am 6.1 -3.2 0.9 69 2.1 SW 39 69 21 37 - - 0.0
22/09:53am 6.5 -1.6 1.0 68 2.3 WSW 33 54 18 29 - - 0.0
22/09:30am 6.3 -2.3 0.0 64 2.5 SW 35 50 19 27 - - 0.0
22/09:00am 5.7 -3.8 -0.4 65 2.4 SW 39 69 21 37 - - 1.2
22/08:30am 5.5 -2.5 0.3 69 2.1 WSW 32 50 17 27 - - 1.2
22/08:00am 5.4 -2.1 1.5 76 1.6 SW 30 52 16 28 - - 1.2
22/07:30am 5.2 -2.9 1.3 76 1.6 SW 33 57 18 31 - - 1.2
22/07:00am 4.9 -3.5 3.7 92 0.5 SW 37 56 20 30 - - 1.2
22/06:54am 5.2 -2.8 4.0 92 0.5 WSW 35 56 19 30 - - 1.2
22/06:30am 5.5 -1.9 4.2 91 0.6 WSW 32 46 17 25 - - 1.2
22/06:00am 5.6 -2.4 3.9 89 0.7 WSW 35 56 19 30 - - 1.2
22/05:43am 5.9 -2.2 3.2 83 1.2 WSW 35 56 19 30 - - 1.2
22/05:30am 5.7 -3.2 3.2 84 1.1 WSW 39 54 21 29 - - 1.2
22/05:00am 5.3 -3.7 4.3 93 0.4 WSW 41 65 22 35 - - 1.2
22/04:30am 5.7 -3.5 5.3 97 0.2 WSW 43 63 23 34 - - 1.2
22/04:02am 6.5 -0.7 6.1 97 0.2 WSW 33 54 18 29 - - 1.0
22/04:00am 6.6 -0.4 6.2 97 0.2 WSW 32 46 17 25 - - 1.0
22/03:45am 6.8 -0.3 6.4 97 0.2 WSW 33 52 18 28 - - 1.0
22/03:30am 6.8 -1.1 6.4 97 0.2 W 37 50 20 27 - - 0.8
22/03:03am 6.8 -2.2 6.4 97 0.2 WSW 43 61 23 33 - - 0.6
22/03:00am 6.8 -2.4 6.4 97 0.2 WSW 44 65 24 35 - - 0.6
22/02:57am 6.8 -2.8 6.4 97 0.2 W 46 69 25 37 - - 0.6
22/02:30am 6.8 -6.0 6.4 97 0.2 WSW 63 89 34 48 - - 0.6
22/02:25am 6.8 -6.0 6.4 97 0.2 WSW 63 89 34 48 - - 0.6
22/02:01am 6.9 -3.4 6.5 97 0.2 W 50 69 27 37 - - 0.4
22/02:00am 6.9 -3.0 6.5 97 0.2 W 48 61 26 33 - - 0.4
22/01:30am 6.7 -1.9 6.3 97 0.2 W 41 56 22 30 - - 0.2
22/01:00am 6.7 -4.0 6.3 97 0.2 W 52 61 28 33 - - 0.2
22/12:30am 6.7 -3.6 6.3 97 0.2 W 50 61 27 33 - - 0.2
22/12:00am 6.8 -2.4 6.2 96 0.3 W 44 54 24 29 - - 0.0
 
Date/Time
EST
Temp
°C
App
Temp
°C
Dew
Point
°C
Rel
Hum
%
Delta-T
°C
Wind Press
QNH
hPa
Press
MSL
hPa
Rain since
9am
mm
Dir  Spd
km/h
Gust
km/h
Spd
kts
Gust
kts
21/11:30pm 7.2 -2.1 6.0 92 0.6 W 44 57 24 31 - - 0.0
21/11:00pm 7.3 -1.4 5.9 91 0.7 W 41 48 22 26 - - 0.0
21/10:30pm 7.6 -2.1 5.6 87 0.9 W 46 61 25 33 - - 0.0
21/10:00pm 8.1 -1.7 5.2 82 1.3 W 46 59 25 32 - - 0.0
21/09:30pm 8.2 -0.8 4.8 79 1.6 W 41 54 22 29 - - 0.0
21/09:00pm 8.1 -1.8 4.7 79 1.6 WSW 46 57 25 31 - - 0.0
21/08:30pm 8.2 0.0 4.8 79 1.6 WSW 37 46 20 25 - - 0.0
21/08:00pm 8.1 0.3 4.9 80 1.5 WSW 35 44 19 24 - - 0.0
21/07:30pm 8.0 0.2 4.8 80 1.5 WSW 35 48 19 26 - - 0.0
21/07:00pm 8.3 0.8 4.3 76 1.8 WSW 33 44 18 24 - - 0.0
21/06:30pm 8.9 1.0 4.1 72 2.2 WSW 35 48 19 26 - - 0.0
21/06:00pm 9.0 1.1 4.2 72 2.2 WSW 35 48 19 26 - - 0.0
21/05:30pm 9.0 1.5 4.6 74 2.0 WSW 33 46 18 25 - - 0.0
21/05:00pm 9.1 0.5 4.5 73 2.1 WSW 39 57 21 31 - - 0.0
21/04:45pm 9.0 1.1 4.4 73 2.1 WSW 35 56 19 30 - - 0.0
21/04:30pm 8.8 0.9 4.6 75 1.9 WSW 35 52 19 28 - - 0.0
21/04:00pm 9.6 0.4 3.4 65 2.8 WSW 41 57 22 31 - - 0.0
21/03:30pm 10.5 0.4 3.5 62 3.2 WSW 46 65 25 35 - - 0.0
21/03:06pm 10.1 2.8 5.3 72 2.3 W 33 52 18 28 - - 0.0
21/03:00pm 9.7 2.9 5.3 74 2.1 WSW 30 39 16 21 - - 0.0
21/02:30pm 10.3 1.3 4.7 68 2.6 WSW 41 54 22 29 - - 0.0
21/02:04pm 8.3 -0.6 5.1 80 1.5 WSW 41 59 22 32 - - 0.0
21/02:00pm 8.4 -1.2 4.2 75 1.9 WSW 44 59 24 32 - - 0.0
21/01:30pm 9.8 -0.1 4.6 70 2.4 WSW 46 69 25 37 - - 0.0
21/01:09pm 10.4 0.7 5.6 72 2.3 W 46 65 25 35 - - 0.0
21/01:00pm 10.2 0.0 5.4 72 2.3 W 48 65 26 35 - - 0.0
21/12:30pm 10.1 1.2 5.3 72 2.3 WSW 41 65 22 35 - - 0.0
21/12:00pm 9.2 0.2 6.5 83 1.3 W 43 61 23 33 - - 0.0
21/11:58am 9.1 0.1 6.5 84 1.3 W 43 61 23 33 - - 0.0
21/11:30am 9.4 2.4 6.7 83 1.3 WSW 33 48 18 26 - - 0.0
21/11:00am 8.1 -1.2 7.7 97 0.2 WSW 46 65 25 35 - - 0.0
21/10:43am 7.7 -0.3 7.4 98 0.1 WSW 39 57 21 31 - - 0.0
21/10:30am 7.6 -0.1 7.3 98 0.1 WSW 37 50 20 27 - - 0.0
21/10:00am 7.5 -0.6 7.2 98 0.1 W 39 50 21 27 - - 0.0
21/09:30am 7.4 -1.1 7.1 98 0.1 WSW 41 56 22 30 - - 0.0
21/09:07am 7.3 -1.8 7.0 98 0.1 WSW 44 63 24 34 - - 0.0
21/09:00am 7.3 -2.1 7.0 98 0.1 W 46 65 25 35 - - 4.0
21/08:48am 7.2 -2.3 6.9 98 0.1 W 46 67 25 36 - - 4.0
21/08:30am 7.2 -1.7 6.9 98 0.1 W 43 54 23 29 - - 3.8
21/08:00am 7.2 -1.7 6.9 98 0.1 W 43 52 23 28 - - 3.8
21/07:30am 7.1 -1.8 6.8 98 0.1 W 43 54 23 29 - - 3.8
21/07:00am 7.1 -0.3 6.8 98 0.1 W 35 44 19 24 - - 3.6
21/06:30am 7.1 0.6 6.7 97 0.2 W 30 50 16 27 - - 3.0
21/06:17am 7.0 0.9 6.6 97 0.2 W 28 48 15 26 - - 3.0
21/06:00am 7.0 1.3 6.6 97 0.2 W 26 37 14 20 - - 3.0
21/05:30am 7.0 1.3 6.6 97 0.2 W 26 43 14 23 - - 2.8
21/05:00am 6.9 1.9 6.5 97 0.2 W 22 39 12 21 - - 2.6
21/04:30am 6.9 1.9 6.5 97 0.2 WNW 22 32 12 17 - - 2.4
21/04:00am 6.8 2.4 6.4 97 0.2 W 19 30 10 16 - - 2.4
21/03:30am 6.8 2.2 6.4 97 0.2 W 20 30 11 16 - - 2.0
21/03:00am 6.8 1.4 6.4 97 0.2 W 24 37 13 20 - - 1.2
21/02:30am 6.8 1.0 6.2 96 0.3 W 26 41 14 22 - - 0.8
21/02:00am 6.8 0.6 6.1 95 0.3 W 28 43 15 23 - - 0.6
21/01:30am 6.9 -0.1 6.0 94 0.4 W 32 46 17 25 - - 0.4
21/01:08am 7.0 0.0 5.9 93 0.5 W 32 52 17 28 - - 0.2
21/01:00am 7.1 -0.5 6.0 93 0.5 W 35 44 19 24 - - 0.2
21/12:30am 7.4 0.2 6.0 91 0.7 W 33 48 18 26 - - 0.2
21/12:00am 7.5 -0.9 5.8 89 0.8 W 39 52 21 28 - - 0.2
 
Date/Time
EST
Temp
°C
App
Temp
°C
Dew
Point
°C
Rel
Hum
%
Delta-T
°C
Wind Press
QNH
hPa
Press
MSL
hPa
Rain since
9am
mm
Dir  Spd
km/h
Gust
km/h
Spd
kts
Gust
kts
20/11:30pm 7.7 -1.4 5.7 87 0.9 W 43 57 23 31 - - 0.2
20/11:00pm 7.9 -0.5 5.5 85 1.1 W 39 50 21 27 - - 0.2
20/10:30pm 8.0 -0.3 6.0 87 0.9 W 39 48 21 26 - - 0.2
20/10:00pm 8.2 0.3 6.0 86 1.0 W 37 50 20 27 - - 0.2
20/09:30pm 8.1 1.9 6.1 87 0.9 W 28 39 15 21 - - 0.2
20/09:00pm 8.1 1.9 6.2 88 0.9 W 28 43 15 23 - - 0.2
20/08:30pm 7.9 1.7 6.0 88 0.9 W 28 39 15 21 - - 0.2
20/08:00pm 7.7 2.6 6.2 90 0.7 W 22 35 12 19 - - 0.2
20/07:30pm 7.5 3.4 6.1 91 0.7 W 17 32 9 17 - - 0.2
20/07:00pm 7.6 2.9 6.1 90 0.7 WNW 20 37 11 20 - - 0.2
20/06:30pm 7.6 3.1 5.9 89 0.8 WNW 19 30 10 16 - - 0.2
20/06:00pm 7.5 2.9 5.8 89 0.8 WNW 19 33 10 18 - - 0.2
20/05:30pm 7.2 2.4 5.7 90 0.7 WNW 20 33 11 18 - - 0.2
20/05:00pm 6.7 2.4 5.3 91 0.6 NW 17 30 9 16 - - 0.2
20/04:30pm 6.6 2.6 5.1 90 0.7 NW 15 26 8 14 - - 0.2
20/04:00pm 6.3 1.9 4.8 90 0.7 NW 17 30 9 16 - - 0.2
20/03:30pm 6.0 2.3 4.6 91 0.6 NNW 13 24 7 13 - - 0.2
20/03:00pm 6.0 1.9 4.3 89 0.8 NW 15 24 8 13 - - 0.2
20/02:30pm 6.0 2.7 4.3 89 0.8 NW 11 20 6 11 - - 0.2
20/02:00pm 5.8 3.2 4.1 89 0.8 NNW 7 17 4 9 - - 0.2
20/01:30pm 5.7 1.8 3.5 86 1.0 NW 13 20 7 11 - - 0.2
20/01:00pm 5.6 0.6 3.6 87 0.9 WNW 19 28 10 15 - - 0.2
20/12:30pm 5.4 1.2 3.7 89 0.7 WNW 15 26 8 14 - - 0.2
20/12:00pm 5.4 1.2 3.6 88 0.8 WNW 15 20 8 11 - - 0.2
20/11:30am 5.4 1.9 3.6 88 0.8 NW 11 19 6 10 - - 0.2
20/11:00am 5.7 1.1 3.9 88 0.8 WNW 17 26 9 14 - - 0.2
20/10:30am 5.6 1.4 3.6 87 0.9 W 15 24 8 13 - - 0.2
20/10:00am 5.6 2.1 3.4 86 1.0 W 11 20 6 11 - - 0.2
20/09:30am 5.3 0.6 3.2 86 0.9 W 17 22 9 12 - - 0.0
20/09:00am 5.2 1.7 3.5 89 0.7 W 11 19 6 10 - - 1.2
20/08:30am 4.5 0.2 3.3 92 0.5 W 15 19 8 10 - - 1.2
20/08:00am 4.3 0.4 3.3 93 0.4 W 13 17 7 9 - - 1.2
20/07:30am 4.0 -0.7 3.0 93 0.4 W 17 24 9 13 - - 1.2
20/07:00am 3.9 -1.2 3.0 94 0.4 W 19 24 10 13 - - 1.2
20/06:30am 3.8 -1.9 2.9 94 0.4 W 22 30 12 16 - - 1.2
20/06:00am 3.8 -1.3 2.9 94 0.4 WSW 19 26 10 14 - - 1.2
20/05:30am 3.9 -0.8 3.0 94 0.4 W 17 24 9 13 - - 1.2
20/05:00am 3.9 -1.2 2.9 93 0.4 W 19 24 10 13 - - 1.2
20/04:30am 4.1 -1.0 2.9 92 0.5 W 19 24 10 13 - - 1.2
20/04:00am 4.0 -1.3 2.8 92 0.5 W 20 26 11 14 - - 1.2
20/03:30am 3.9 -1.4 2.9 93 0.4 W 20 30 11 16 - - 1.2
20/03:00am 3.7 -2.0 2.7 93 0.4 W 22 32 12 17 - - 1.2
20/02:30am 3.8 -3.1 2.5 91 0.5 W 28 35 15 19 - - 1.2
20/02:00am 3.8 -2.0 2.3 90 0.6 W 22 30 12 16 - - 1.2
20/01:30am 3.8 -1.5 2.0 88 0.7 W 19 22 10 12 - - 1.2
20/01:00am 3.9 -0.6 2.1 88 0.7 W 15 22 8 12 - - 1.2
20/12:30am 3.9 -1.0 1.9 87 0.8 W 17 22 9 12 - - 1.2
20/12:00am 4.0 -0.9 2.0 87 0.8 W 17 26 9 14 - - 1.2
 
Date/Time
EST
Temp
°C
App
Temp
°C
Dew
Point
°C
Rel
Hum
%
Delta-T
°C
Wind Press
QNH
hPa
Press
MSL
hPa
Rain since
9am
mm
Dir  Spd
km/h
Gust
km/h
Spd
kts
Gust
kts
19/11:30pm 4.1 -1.7 2.1 87 0.8 W 22 28 12 15 - - 1.2
19/11:00pm 4.2 -2.0 2.2 87 0.8 W 24 32 13 17 - - 1.2
19/10:30pm 4.2 -2.3 2.4 88 0.8 W 26 33 14 18 - - 1.2
19/10:00pm 4.1 -1.1 2.6 90 0.6 W 19 26 10 14 - - 1.2
19/09:30pm 4.1 -1.0 3.1 93 0.4 W 19 24 10 13 - - 1.2

Other formats

Comma delimited format used in spreadsheet applications
http://www.bom.gov.au/fwo/IDV60801/IDV60801.94881.axf

JavaScript Object Notation format (JSON) in row-major order
http://www.bom.gov.au/fwo/IDV60801/IDV60801.94881.json

Data quality

Most of these data are generated automatically and are frequently updated. Quality checks on data are not normally performed. It is possible for incorrect values to appear. Refer to information at About Latest Weather Observations and please check the disclaimer before using these data.